Flight Track Log - Related Links

Times and Time Zones

All times are in EDT time to prevent confusion due to time zone crossing. See the FFT931 flight status page for this flight to view local times or setup timezone preferences in your user account.

Time Position Orientation Groundspeed Altitude Reporting Facility
EDT Latitude Longitude Course Direction KTS MPH feet Rate Location/Type
Wed 03:08:14 PM 40.2370 -74.8620 223° Southwest 191 220 2,100  Level FlightAware ADS-B
Wed 03:08:34 PM 40.2220 -74.8810 224° Southwest 222 255 2,800 2,143 Climbing FlightAware ADS-B
Wed 03:08:56 PM 40.2060 -74.9020 225° Southwest 246 283 3,600 2,571 Climbing FlightAware ADS-B
Wed 03:09:16 PM 40.1860 -74.9260 223° Southwest 262 302 4,600 2,786 Climbing FlightAware ADS-B
Wed 03:09:24 PM 40.1780 -74.9320 210° Southwest 273 314 4,900 2,786 Climbing FlightAware ADS-B
Wed 03:09:44 PM 40.1550 -74.9470 206° Southwest 280 322 5,900 2,651 Climbing FlightAware ADS-B
Wed 03:10:07 PM 40.1270 -74.9660 207° Southwest 277 319 6,800 1,364 Climbing FlightAware ADS-B
Wed 03:10:28 PM 40.1050 -74.9820 209° Southwest 279 321 6,900 154 Climbing FlightAware ADS-B
Wed 03:10:46 PM 40.0850 -74.9950 206° Southwest 280 322 6,900 750 Level FlightAware ADS-B
Wed 03:11:16 PM 40.0520 -75.0180 208° Southwest 295 339 7,500 2,087 Climbing FlightAware ADS-B
Wed 03:11:32 PM 40.0300 -75.0340 209° Southwest 294 338 8,500 3,000 Climbing FlightAware ADS-B
Wed 03:12:00 PM 39.9950 -75.0570 207° Southwest 296 341 9,700 1,750 Climbing FlightAware ADS-B
Wed 03:12:20 PM 39.9710 -75.0740 208° Southwest 297 342 9,900 308 Climbing FlightAware ADS-B
Wed 03:12:39 PM 39.9460 -75.0910 208° Southwest 296 341 9,900  Level FlightAware ADS-B
Wed 03:12:59 PM 39.9220 -75.1080 209° Southwest 297 342 9,900  Level FlightAware ADS-B
Wed 03:13:20 PM 39.8970 -75.1250 208° Southwest 298 343 9,900 1,102 Level FlightAware ADS-B
Wed 03:13:48 PM 39.8630 -75.1480 207° Southwest 299 344 10,800 1,875 Climbing FlightAware ADS-B
Wed 03:14:24 PM 39.8190 -75.1780 208° Southwest 323 372 11,900 917 Climbing FlightAware ADS-B
Wed 03:15:00 PM 39.7700 -75.2120 208° Southwest 335 386 11,900  Level FlightAware ADS-B
Wed 03:15:36 PM 39.7200 -75.2460 208° Southwest 335 386 11,900  Level FlightAware ADS-B
Wed 03:16:08 PM 39.6750 -75.2760 207° Southwest 334 384 11,900  Level FlightAware ADS-B
Wed 03:16:45 PM 39.6240 -75.3040 203° Southwest 341 392 11,900  Level FlightAware ADS-B
Wed 03:17:21 PM 39.5690 -75.3150 189° South 343 395 11,900  Level FlightAware ADS-B
Wed 03:18:01 PM 39.5020 -75.3270 188° South 345 397 11,900 400 Level FlightAware ADS-B
Wed 03:18:36 PM 39.4480 -75.3370 188° South 344 396 12,400 1,775 Climbing FlightAware ADS-B
Wed 03:19:12 PM 39.3900 -75.3470 188° South 349 402 14,000 2,597 Climbing FlightAware ADS-B
Wed 03:19:43 PM 39.3390 -75.3570 189° South 354 407 15,300 2,348 Climbing FlightAware ADS-B
Wed 03:20:21 PM 39.2820 -75.3670 188° South 360 414 16,700 1,397 Climbing FlightAware ADS-B
Wed 03:20:56 PM 39.2200 -75.3780 188° South 363 418 17,000 164 Climbing FlightAware ADS-B
Wed 03:21:34 PM 39.1560 -75.3880 187° South 364 419 16,900 -88 Descending FlightAware ADS-B
Wed 03:22:04 PM 39.1060 -75.3960 187° South 365 420 16,900 441 Level FlightAware ADS-B
Wed 03:22:42 PM 39.0420 -75.4050 186° South 365 420 17,400 1,541 Climbing FlightAware ADS-B
Wed 03:23:18 PM 38.9810 -75.4150 187° South 370 426 18,800 2,167 Climbing FlightAware ADS-B
Wed 03:23:54 PM 38.9190 -75.4240 186° South 378 435 20,000 2,118 Climbing FlightAware ADS-B
Wed 03:24:26 PM 38.8620 -75.4330 187° South 381 438 21,200 2,060 Climbing FlightAware ADS-B
Wed 03:25:01 PM 38.7990 -75.4420 186° South 389 448 22,300 1,917 Climbing FlightAware ADS-B
Wed 03:25:38 PM 38.7350 -75.4520 187° South 392 451 23,500 1,917 Climbing FlightAware ADS-B
Wed 03:26:13 PM 38.6700 -75.4620 187° South 396 456 24,600 1,739 Climbing FlightAware ADS-B
Wed 03:26:47 PM 38.6090 -75.4710 187° South 403 464 25,500 1,636 Climbing FlightAware ADS-B
Wed 03:27:19 PM 38.5470 -75.4800 186° South 409 471 26,400 1,500 Climbing FlightAware ADS-B
Wed 03:27:59 PM 38.4720 -75.4920 187° South 419 482 27,300 1,352 Climbing FlightAware ADS-B
Wed 03:28:30 PM 38.4110 -75.5010 187° South 424 488 28,000 1,247 Climbing FlightAware ADS-B
Wed 03:29:16 PM 38.3260 -75.5350 197° South 427 491 28,900 1,308 Climbing FlightAware ADS-B
Wed 03:29:48 PM 38.2730 -75.5790 213° Southwest 424 488 29,700 1,273 Climbing FlightAware ADS-B
Wed 03:30:22 PM 38.2190 -75.6290 216° Southwest 429 494 30,300 1,099 Climbing FlightAware ADS-B
Wed 03:30:59 PM 38.1600 -75.6850 217° Southwest 433 498 31,000 1,054 Climbing FlightAware ADS-B
Wed 03:31:36 PM 38.1020 -75.7400 217° Southwest 438 504 31,600 1,304 Climbing FlightAware ADS-B
Wed 03:32:08 PM 38.0510 -75.7880 217° Southwest 426 490 32,500 1,543 Climbing FlightAware ADS-B
Wed 03:32:46 PM 37.9940 -75.8410 216° Southwest 421 484 33,400 1,324 Climbing FlightAware ADS-B
Wed 03:33:16 PM 37.9420 -75.8900 217° Southwest 424 488 34,000 1,440 Climbing FlightAware ADS-B
Wed 03:34:01 PM 37.8740 -75.9520 216° Southwest 422 486 35,200 1,500 Climbing FlightAware ADS-B
Wed 03:34:40 PM 37.8080 -76.0140 217° Southwest 415 478 36,100 1,200 Climbing FlightAware ADS-B
Wed 03:35:16 PM 37.7520 -76.0670 217° Southwest 414 476 36,700 870 Climbing FlightAware ADS-B
Wed 03:35:49 PM 37.7050 -76.1110 217° Southwest 407 468 37,100 930 Climbing FlightAware ADS-B
Wed 03:36:27 PM 37.6450 -76.1690 217° Southwest 409 471 37,800 771 Climbing FlightAware ADS-B
Wed 03:36:59 PM 37.5970 -76.2140 217° Southwest 404 465 38,000 188 Climbing FlightAware ADS-B
Wed 03:37:31 PM 37.5460 -76.2620 217° Southwest 410 472 38,000  Level FlightAware ADS-B
Wed 03:38:11 PM 37.4860 -76.3180 217° Southwest 414 476 38,000  Level FlightAware ADS-B
Wed 03:38:46 PM 37.4330 -76.3680 217° Southwest 413 475 38,000  Level FlightAware ADS-B
Wed 03:39:21 PM 37.3800 -76.4180 217° Southwest 413 475 38,000  Level FlightAware ADS-B
Wed 03:39:57 PM 37.3250 -76.4690 216° Southwest 413 475 38,000  Level FlightAware ADS-B
Wed 03:40:31 PM 37.2780 -76.5130 217° Southwest 413 475 38,000  Level FlightAware ADS-B
Wed 03:41:05 PM 37.2230 -76.5650 217° Southwest 414 476 38,000  Level FlightAware ADS-B
Wed 03:41:42 PM 37.1650 -76.6190 217° Southwest 415 478 38,000  Level FlightAware ADS-B
Wed 03:42:18 PM 37.1130 -76.6670 216° Southwest 414 476 38,000  Level FlightAware ADS-B
Wed 03:42:49 PM 37.0590 -76.7180 217° Southwest 415 478 38,000  Level FlightAware ADS-B
Wed 03:43:29 PM 36.9990 -76.7730 216° Southwest 415 478 38,000  Level FlightAware ADS-B
Wed 03:44:01 PM 36.9500 -76.8190 217° Southwest 415 478 38,000  Level FlightAware ADS-B
Wed 03:44:51 PM 36.8780 -76.8840 216° Southwest 415 478 38,000  Level FlightAware ADS-B
Wed 03:45:27 PM 36.8300 -76.9270 216° Southwest 415 478 38,000  Level FlightAware ADS-B
Wed 03:46:19 PM 36.7420 -77.0090 217° Southwest 416 479 38,000  Level FlightAware ADS-B
Wed 03:46:59 PM 36.6750 -77.0720 217° Southwest 418 481 38,000  Level FlightAware ADS-B
Wed 03:47:53 PM 36.5980 -77.1410 216° Southwest 419 482 38,000  Level FlightAware ADS-B
Wed 03:48:28 PM 36.5370 -77.1970 216° Southwest 419 482 38,000  Level FlightAware ADS-B
Wed 03:48:59 PM 36.4850 -77.2450 217° Southwest 419 482 38,000  Level FlightAware ADS-B
Wed 03:49:35 PM 36.4310 -77.2940 216° Southwest 420 483 38,000  Level FlightAware ADS-B
Wed 03:50:15 PM 36.3670 -77.3520 216° Southwest 419 482 38,000  Level FlightAware ADS-B
Wed 03:50:47 PM 36.3160 -77.3980 216° Southwest 418 481 38,000  Level FlightAware ADS-B
Wed 03:51:21 PM 36.2650 -77.4450 217° Southwest 418 481 38,000  Level FlightAware ADS-B
Wed 03:51:59 PM 36.2040 -77.4990 216° Southwest 418 481 38,000  Level FlightAware ADS-B
Wed 03:52:33 PM 36.1500 -77.5480 216° Southwest 420 483 38,000  Level FlightAware ADS-B
Wed 03:53:09 PM 36.0930 -77.5990 216° Southwest 420 483 38,000  Level FlightAware ADS-B
Wed 03:53:42 PM 36.0450 -77.6420 216° Southwest 421 484 38,000  Level FlightAware ADS-B
Wed 03:54:19 PM 35.9840 -77.6970 216° Southwest 421 484 38,000  Level FlightAware ADS-B
Wed 03:54:51 PM 35.9360 -77.7420 217° Southwest 420 483 38,000  Level FlightAware ADS-B
Wed 03:55:25 PM 35.8820 -77.7950 218° Southwest 421 484 38,000  Level FlightAware ADS-B
Wed 03:56:05 PM 35.8210 -77.8530 218° Southwest 422 486 38,000  Level FlightAware ADS-B
Wed 03:56:37 PM 35.7710 -77.9010 218° Southwest 423 487 38,000  Level FlightAware ADS-B
Wed 03:57:11 PM 35.7190 -77.9510 218° Southwest 423 487 38,000  Level FlightAware ADS-B
Wed 03:57:51 PM 35.6560 -78.0100 217° Southwest 425 489 38,000  Level FlightAware ADS-B
Wed 03:58:23 PM 35.6080 -78.0560 218° Southwest 424 488 38,000  Level FlightAware ADS-B
Wed 03:59:01 PM 35.5470 -78.1130 217° Southwest 424 488 38,000  Level FlightAware ADS-B
Wed 03:59:37 PM 35.4920 -78.1660 218° Southwest 424 488 38,000  Level FlightAware ADS-B
Wed 04:00:08 PM 35.4490 -78.2070 218° Southwest 423 487 38,000  Level FlightAware ADS-B
Wed 04:00:44 PM 35.3920 -78.2610 218° Southwest 423 487 38,000  Level FlightAware ADS-B
Wed 04:01:20 PM 35.3400 -78.3100 218° Southwest 422 486 38,000  Level FlightAware ADS-B
Wed 04:02:00 PM 35.2760 -78.3700 217° Southwest 415 478 38,000  Level FlightAware ADS-B
Wed 04:02:35 PM 35.2180 -78.4240 217° Southwest 422 486 38,000  Level FlightAware ADS-B
Wed 04:03:10 PM 35.1710 -78.4690 218° Southwest 423 487 38,000  Level FlightAware ADS-B
Wed 04:03:55 PM 35.0950 -78.5400 217° Southwest 422 486 38,000  Level FlightAware ADS-B
Wed 04:04:32 PM 35.0450 -78.5860 217° Southwest 422 486 38,000  Level FlightAware ADS-B
Wed 04:05:15 PM 34.9690 -78.6570 217° Southwest 478 550 38,000  Level FlightAware ADS-B
Wed 04:05:54 PM 34.9080 -78.7140 217° Southwest 425 489 38,000  Level FlightAware ADS-B
Wed 04:06:26 PM 34.8600 -78.7590 218° Southwest 426 490 38,000  Level FlightAware ADS-B
Wed 04:07:00 PM 34.8040 -78.8110 217° Southwest 427 491 38,000  Level FlightAware ADS-B
Wed 04:07:36 PM 34.7460 -78.8640 217° Southwest 428 493 38,000  Level FlightAware ADS-B
Wed 04:08:16 PM 34.6930 -78.9130 217° Southwest 428 493 38,000  Level FlightAware ADS-B
Wed 04:08:52 PM 34.6290 -78.9720 217° Southwest 428 493 38,000  Level FlightAware ADS-B
Wed 04:09:36 PM 34.5650 -79.0310 217° Southwest 428 493 38,000  Level FlightAware ADS-B
Wed 04:10:46 PM 34.4480 -79.1380 217° Southwest 429 494 38,000  Level FlightAware ADS-B
Wed 04:11:29 PM 34.3792 -79.2044 217° Southwest 431 496 38,000  Level Jacksonville Center
Wed 04:12:29 PM 34.2836 -79.2939 218° Southwest 431 496 38,000 -50 Level Jacksonville Center
Wed 04:13:29 PM 34.1900 -79.3781 217° Southwest 431 496 37,900  Descending Jacksonville Center
Wed 04:14:29 PM 34.0983 -79.4569 215° Southwest 425 489 38,000  Climbing Jacksonville Center
Wed 04:15:29 PM 34.0047 -79.5433 217° Southwest 425 489 37,900  Descending Jacksonville Center
Wed 04:16:29 PM 33.9089 -79.6294 217° Southwest 430 495 38,000 50 Climbing Jacksonville Center
Wed 04:17:29 PM 33.8153 -79.7181 218° Southwest 430 495 38,000  Level Jacksonville Center
Wed 04:18:29 PM 33.7258 -79.8161 222° Southwest 435 501 38,000  Level Jacksonville Center
Wed 04:19:29 PM 33.6364 -79.9092 221° Southwest 435 501 38,000  Level Jacksonville Center
Wed 04:24:59 PM 33.1260 -80.4310 221° Southwest 439 505 38,000  Level FlightAware ADS-B
Wed 04:25:31 PM 33.0790 -80.4780 220° Southwest 437 503 38,000  Level FlightAware ADS-B
Wed 04:26:08 PM 33.0180 -80.5360 219° Southwest 436 502 38,000  Level FlightAware ADS-B
Wed 04:27:52 PM 32.8550 -80.6940 219° Southwest 435 501 38,000  Level FlightAware ADS-B
Wed 04:28:29 PM 32.7980 -80.7490 219° Southwest 437 503 38,000  Level FlightAware ADS-B
Wed 04:29:01 PM 32.7480 -80.7980 220° Southwest 437 503 38,000  Level FlightAware ADS-B
Wed 04:29:38 PM 32.6910 -80.8530 219° Southwest 438 504 38,000  Level FlightAware ADS-B
Wed 04:30:11 PM 32.6390 -80.9040 220° Southwest 439 505 38,000  Level FlightAware ADS-B
Wed 04:30:48 PM 32.5790 -80.9600 218° Southwest 439 505 38,000  Level FlightAware ADS-B
Wed 04:31:55 PM 32.4730 -81.0620 219° Southwest 439 505 38,000  Level FlightAware ADS-B
Wed 04:32:32 PM 32.4160 -81.1200 221° Southwest 440 506 38,000  Level FlightAware ADS-B
Wed 04:33:08 PM 32.3610 -81.1760 221° Southwest 441 507 38,000  Level FlightAware ADS-B
Wed 04:33:43 PM 32.3060 -81.2310 220° Southwest 441 507 38,000  Level FlightAware ADS-B
Wed 04:34:15 PM 32.2540 -81.2810 219° Southwest 440 506 38,000  Level FlightAware ADS-B
Wed 04:34:52 PM 32.1950 -81.3360 218° Southwest 438 504 38,000  Level FlightAware ADS-B
Wed 04:35:24 PM 32.1460 -81.3840 220° Southwest 439 505 38,000  Level FlightAware ADS-B
Wed 04:36:11 PM 32.0800 -81.4470 219° Southwest 440 506 38,000  Level FlightAware ADS-B
Wed 04:36:59 PM 32.0160 -81.5090 219° Southwest 440 506 38,000  Level FlightAware ADS-B
Wed 04:37:35 PM 31.9680 -81.5550 219° Southwest 440 506 38,000  Level FlightAware ADS-B
Wed 04:38:09 PM 31.9220 -81.5980 218° Southwest 440 506 38,000  Level FlightAware ADS-B
Wed 04:38:45 PM 31.8730 -81.6450 219° Southwest 440 506 38,000  Level FlightAware ADS-B
Wed 04:39:21 PM 31.8250 -81.6910 219° Southwest 440 506 38,000  Level FlightAware ADS-B
Wed 04:39:57 PM 31.7770 -81.7370 219° Southwest 440 506 38,000  Level FlightAware ADS-B
Wed 04:40:33 PM 31.7280 -81.7830 219° Southwest 440 506 38,000  Level FlightAware ADS-B
Wed 04:41:12 PM 31.5600 -81.8590 201° Southwest 441 507 38,000  Level FlightAware ADS-B
Wed 04:41:44 PM 31.5020 -81.8950 208° Southwest 440 506 38,000  Level FlightAware ADS-B
Wed 04:42:23 PM 31.4420 -81.9310 207° Southwest 440 506 38,000  Level FlightAware ADS-B
Wed 04:43:00 PM 31.3850 -81.9650 207° Southwest 440 506 38,000  Level FlightAware ADS-B
Wed 04:43:36 PM 31.2930 -82.0040 200° South 432 497 38,000  Level FlightAware ADS-B
Wed 04:44:30 PM 31.2020 -82.0340 196° South 432 497 38,000  Level FlightAware ADS-B
Wed 04:45:08 PM 31.1150 -82.0500 189° South 435 501 38,000  Level FlightAware ADS-B
Wed 04:45:45 PM 31.0460 -82.0640 190° South 435 501 38,000  Level FlightAware ADS-B
Wed 04:46:21 PM 30.9710 -82.0800 190° South 433 498 38,000  Level FlightAware ADS-B
Wed 04:46:53 PM 30.9090 -82.0920 189° South 433 498 38,000  Level FlightAware ADS-B
Wed 04:47:29 PM 30.8370 -82.1070 190° South 433 498 38,000  Level FlightAware ADS-B
Wed 04:48:01 PM 30.7730 -82.1200 190° South 432 497 38,000  Level FlightAware ADS-B
Wed 04:48:38 PM 30.7000 -82.1350 190° South 431 496 38,000  Level FlightAware ADS-B
Wed 04:49:13 PM 30.6310 -82.1490 190° South 430 495 38,000  Level FlightAware ADS-B
Wed 04:49:47 PM 30.5620 -82.1630 190° South 428 493 38,000  Level FlightAware ADS-B
Wed 04:50:24 PM 30.4930 -82.1770 190° South 427 491 38,000  Level FlightAware ADS-B
Wed 04:50:58 PM 30.4240 -82.1910 190° South 427 491 38,000  Level FlightAware ADS-B
Wed 04:51:31 PM 30.3610 -82.2040 190° South 427 491 38,000  Level FlightAware ADS-B
Wed 04:52:10 PM 30.2850 -82.2190 190° South 428 493 38,000  Level FlightAware ADS-B
Wed 04:52:44 PM 30.2180 -82.2320 190° South 430 495 38,000 -185 Level FlightAware ADS-B
Wed 04:53:15 PM 30.1600 -82.2440 190° South 433 498 37,800 -943 Descending FlightAware ADS-B
Wed 04:53:54 PM 30.0800 -82.2600 190° South 431 496 36,900 -1,895 Descending FlightAware ADS-B
Wed 04:54:31 PM 30.0100 -82.2740 190° South 433 498 35,400 -2,692 Descending FlightAware ADS-B
Wed 04:55:12 PM 29.9270 -82.2910 190° South 438 504 33,400 -2,676 Descending FlightAware ADS-B
Wed 04:55:45 PM 29.8590 -82.3010 187° South 455 524 32,100 -2,206 Descending FlightAware ADS-B
Wed 04:56:20 PM 29.7850 -82.2990 179° South 453 521 30,900 -1,973 Descending FlightAware ADS-B
Wed 04:56:58 PM 29.7050 -82.2960 178° South 440 506 29,700 -1,971 Descending FlightAware ADS-B
Wed 04:57:30 PM 29.6390 -82.2940 178° South 433 498 28,600 -2,239 Descending FlightAware ADS-B
Wed 04:58:05 PM 29.5710 -82.2910 178° South 426 490 27,200 -2,333 Descending FlightAware ADS-B
Wed 04:58:42 PM 29.4980 -82.2880 178° South 419 482 25,800 -2,087 Descending FlightAware ADS-B
Wed 04:59:14 PM 29.4360 -82.2850 178° South 409 471 24,800 -2,029 Descending FlightAware ADS-B
Wed 04:59:50 PM 29.3700 -82.2830 178° South 400 460 23,500 -2,083 Descending FlightAware ADS-B
Wed 05:00:26 PM 29.3030 -82.2800 178° South 392 451 22,300 -2,055 Descending FlightAware ADS-B
Wed 05:01:03 PM 29.2370 -82.2770 178° South 388 447 21,000 -2,028 Descending FlightAware ADS-B
Wed 05:01:37 PM 29.1770 -82.2750 178° South 379 436 19,900 -1,739 Descending FlightAware ADS-B
Wed 05:02:12 PM 29.1160 -82.2730 178° South 366 421 19,000 -1,714 Descending FlightAware ADS-B
Wed 05:02:47 PM 29.0570 -82.2700 177° South 359 413 17,900 -1,826 Descending FlightAware ADS-B
Wed 05:03:21 PM 29.0010 -82.2680 178° South 350 403 16,900 -1,791 Descending FlightAware ADS-B
Wed 05:03:54 PM 28.9480 -82.2660 178° South 345 397 15,900 -1,667 Descending FlightAware ADS-B
Wed 05:04:33 PM 28.8870 -82.2630 178° South 335 386 14,900 -1,629 Descending FlightAware ADS-B
Wed 05:05:04 PM 28.8400 -82.2620 179° South 333 383 14,000 -1,765 Descending FlightAware ADS-B
Wed 05:05:41 PM 28.7820 -82.2590 177° South 329 379 12,900 -904 Descending FlightAware ADS-B
Wed 05:06:17 PM 28.7300 -82.2470 169° South 307 353 12,900  Level FlightAware ADS-B
Wed 05:06:49 PM 28.6870 -82.2300 161° South 308 354 12,900  Level FlightAware ADS-B
Wed 05:07:26 PM 28.6350 -82.2160 167° South 308 354 12,900 -324 Level FlightAware ADS-B
Wed 05:08:03 PM 28.5830 -82.2090 173° South 302 348 12,500 -1,071 Descending FlightAware ADS-B
Wed 05:08:50 PM 28.5200 -82.2080 179° South 299 344 11,400 -1,448 Descending FlightAware ADS-B
Wed 05:09:30 PM 28.4630 -82.2070 179° South 293 337 10,400 -1,579 Descending FlightAware ADS-B
Wed 05:10:06 PM 28.4140 -82.2120 185° South 293 337 9,400 -1,655 Descending FlightAware ADS-B
Wed 05:10:28 PM 28.3860 -82.2220 197° South 289 333 8,800 -1,395 Descending FlightAware ADS-B
Wed 05:10:49 PM 28.3600 -82.2260 188° South 286 329 8,400 -1,371 Descending FlightAware ADS-B
Wed 05:11:03 PM 28.3400 -82.2280 185° South 285 328 8,000 -1,592 Descending FlightAware ADS-B
Wed 05:11:38 PM 28.2960 -82.2330 186° South 279 321 7,100 -1,200 Descending FlightAware ADS-B
Wed 05:11:53 PM 28.2770 -82.2360 188° South 277 319 7,000 -279 Descending FlightAware ADS-B
Wed 05:12:21 PM 28.2400 -82.2400 185° South 262 302 6,900 -125 Descending FlightAware ADS-B
Wed 05:12:41 PM 28.2180 -82.2430 187° South 256 295 6,900 -769 Level FlightAware ADS-B
Wed 05:13:00 PM 28.1940 -82.2460 186° South 260 299 6,400 -1,610 Descending FlightAware ADS-B
Wed 05:13:22 PM 28.1690 -82.2490 186° South 263 303 5,800 -1,565 Descending FlightAware ADS-B
Wed 05:13:46 PM 28.1380 -82.2530 186° South 260 299 5,200 -1,395 Descending FlightAware ADS-B
Wed 05:14:05 PM 28.1160 -82.2560 187° South 258 297 4,800 -1,500 Descending FlightAware ADS-B
Wed 05:14:26 PM 28.0910 -82.2590 186° South 256 295 4,200 -1,463 Descending FlightAware ADS-B
Wed 05:14:46 PM 28.0670 -82.2620 186° South 255 293 3,800 -1,000 Descending FlightAware ADS-B
Wed 05:15:08 PM 28.0420 -82.2660 188° South 241 277 3,500 -800 Descending FlightAware ADS-B
Wed 05:15:16 PM 28.0340 -82.2690 198° South 238 274 3,400 -750 Descending FlightAware ADS-B
Wed 05:15:24 PM 28.0260 -82.2750 214° Southwest 234 269 3,300 -1,000 Descending FlightAware ADS-B
Wed 05:15:28 PM 28.0230 -82.2780 221° Southwest 233 268 3,200 -1,000 Descending FlightAware ADS-B
Wed 05:15:36 PM 28.0190 -82.2860 240° Southwest 229 264 3,100 -643 Descending FlightAware ADS-B
Wed 05:15:56 PM 28.0100 -82.3080 245° Southwest 219 252 2,900 -714 Descending FlightAware ADS-B
Wed 05:16:18 PM 28.0020 -82.3300 248° West 201 231 2,600 -789 Descending FlightAware ADS-B
Wed 05:16:34 PM 27.9960 -82.3450 246° West 192 221 2,400 -667 Descending FlightAware ADS-B
Wed 05:16:54 PM 27.9890 -82.3630 246° West 178 205 2,200 -732 Descending FlightAware ADS-B
Wed 05:17:15 PM 27.9830 -82.3800 248° West 174 200 1,900 -750 Descending FlightAware ADS-B
Wed 05:17:34 PM 27.9780 -82.3960 251° West 168 193 1,700 -514 Descending FlightAware ADS-B
Wed 05:17:50 PM 27.9740 -82.4100 252° West 173 199 1,600 -563 Descending FlightAware ADS-B
Wed 05:18:06 PM 27.9710 -82.4230 255° West 164 189 1,400 -558 Descending FlightAware ADS-B
Wed 05:18:33 PM 27.9690 -82.4460 264° West 153 176 1,200 -511 Descending FlightAware ADS-B
Wed 05:18:53 PM 27.9690 -82.4600 270° West 144 166 1,000 -750 Descending FlightAware ADS-B
Wed 05:19:13 PM 27.9690 -82.4750 270° West 140 161 700 -923 Descending FlightAware ADS-B
Wed 05:19:32 PM 27.9700 -82.4890 275° West 140 161 400 -340 Descending FlightAware ADS-B
Wed 05:20:06 PM 27.9700 -82.5110 270° West 140 161 400  Level FlightAware ADS-B

Login

Don't have an account? Register now (free) for customized features, flight alerts, and more!